Flight Track Log - Related Links

Times and Time Zones

All times are in EDT time to prevent confusion due to time zone crossing. See the ASQ4537 flight status page for this flight to view local times or setup timezone preferences in your user account.

Time Position Orientation Groundspeed Altitude Reporting Facility
EDT Latitude Longitude Course Direction KTS MPH feet Rate Location/Type
Fri 09:39:47 AM 40.7333 -74.1167 237° Southwest 192 221 2,500  Level New York TRACON
Fri 09:40:47 AM 40.7833 -74.0833 27° Northeast 241 277 3,500 800 Climbing New York TRACON
Fri 09:41:47 AM 40.8167 -74.1667 298° West 252 290 4,100 1,400 Climbing New York TRACON
Fri 09:42:00 AM 40.6834 -74.7453 270° West  Level FlightAware Approximate
Fri 09:42:47 AM 40.8500 -74.2500 298° West 256 295 6,300  Level New York TRACON
Fri 09:43:00 AM 40.6834 -74.8900 270° West  Level FlightAware Approximate
Fri 09:44:00 AM 40.6723 -75.0331 258° West  Level FlightAware Approximate
Fri 09:45:00 AM 40.6364 -75.1606 237° Southwest  Level FlightAware Approximate
Fri 09:45:14 AM 40.8258 -74.4978 263° West 284 327 10,900  Level New York Center
Fri 09:46:14 AM 40.7969 -74.6114 251° West 314 361 11,700 650 Climbing New York Center
Fri 09:47:14 AM 40.7683 -74.7247 252° West 327 376 12,200 1,050 Climbing New York Center
Fri 09:48:14 AM 40.7414 -74.8439 253° West 338 389 13,800 1,550 Climbing New York Center
Fri 09:49:14 AM 40.7147 -74.9489 252° West 338 389 15,300 1,400 Climbing New York Center
Fri 09:50:14 AM 40.6833 -75.0703 251° West 343 395 16,600 1,250 Climbing New York Center
Fri 09:51:14 AM 40.6289 -75.1925 240° Southwest 348 400 17,800 950 Climbing New York Center
Fri 09:52:14 AM 40.5808 -75.3014 240° Southwest 369 425 18,500 800 Climbing New York Center
Fri 09:53:14 AM 40.5306 -75.4156 240° Southwest 376 433 19,400 900 Climbing New York Center
Fri 09:54:14 AM 40.4761 -75.5294 238° Southwest 371 427 20,300 950 Climbing New York Center
Fri 09:55:14 AM 40.4256 -75.6431 240° Southwest 371 427 21,300 1,100 Climbing New York Center
Fri 09:56:14 AM 40.3728 -75.7564 239° Southwest 371 427 22,500 1,150 Climbing New York Center
Fri 09:57:14 AM 40.3200 -75.8725 239° Southwest 371 427 23,600 1,100 Climbing New York Center
Fri 09:58:14 AM 40.2583 -75.9958 237° Southwest 380 437 24,700 1,100 Climbing New York Center
Fri 09:59:14 AM 40.2053 -76.1114 239° Southwest 374 430 25,800 1,200 Climbing New York Center
Fri 10:00:14 AM 40.1611 -76.2114 240° Southwest 367 422 27,100 1,550 Climbing New York Center
Fri 10:01:14 AM 40.1033 -76.3289 237° Southwest 367 422 28,900 1,450 Climbing New York Center
Fri 10:02:14 AM 40.0544 -76.4361 239° Southwest 354 407 30,000 1,100 Climbing New York Center
Fri 10:03:14 AM 40.0056 -76.5433 239° Southwest 347 399 31,100 1,050 Climbing New York Center
Fri 10:04:14 AM 39.9567 -76.6478 239° Southwest 347 399 32,100 837 Climbing New York Center
Fri 10:06:42 AM 39.8400 -76.8886 238° Southwest 346 398 34,000 556 Climbing Washington Center
Fri 10:07:39 AM 39.7867 -77.0036 239° Southwest 352 405 34,000  Level Washington Center
Fri 10:08:40 AM 39.7311 -77.1242 239° Southwest 377 434 34,000  Level Washington Center
Fri 10:09:41 AM 39.6711 -77.2467 238° Southwest 395 455 34,000  Level Washington Center
Fri 10:10:41 AM 39.6131 -77.3719 239° Southwest 400 460 34,000 712 Level Washington Center
Fri 10:11:39 AM 39.5569 -77.4917 239° Southwest 400 460 35,400 1,008 Climbing Washington Center
Fri 10:12:40 AM 39.5008 -77.6086 238° Southwest 394 453 36,000 298 Climbing Washington Center
Fri 10:13:40 AM 39.4383 -77.7414 239° Southwest 394 453 36,000  Level Washington Center
Fri 10:14:41 AM 39.3819 -77.8606 239° Southwest 394 453 36,000  Level Washington Center
Fri 10:15:41 AM 39.3336 -77.9825 243° Southwest 394 453 36,000  Level Washington Center
Fri 10:16:39 AM 39.2831 -78.1094 243° Southwest 389 448 36,000  Level Washington Center
Fri 10:17:40 AM 39.2303 -78.2361 242° Southwest 395 455 36,000  Level Washington Center
Fri 10:18:40 AM 39.1794 -78.3656 243° Southwest 400 460 36,000  Level Washington Center
Fri 10:19:41 AM 39.1286 -78.4947 243° Southwest 405 466 36,000  Level Washington Center
Fri 10:20:41 AM 39.0775 -78.6211 243° Southwest 405 466 36,000  Level Washington Center
Fri 10:21:42 AM 39.0242 -78.7497 242° Southwest 405 466 36,000  Level Washington Center
Fri 10:22:39 AM 38.9728 -78.8783 243° Southwest 405 466 36,000  Level Washington Center
Fri 10:23:40 AM 38.9211 -79.0069 243° Southwest 405 466 36,000  Level Washington Center
Fri 10:24:41 AM 38.8675 -79.1350 242° Southwest 405 466 36,000  Level Washington Center
Fri 10:25:39 AM 38.8281 -79.2692 249° West 405 466 36,000  Level Washington Center
Fri 10:26:40 AM 38.8031 -79.4036 257° West 399 459 36,000  Level Washington Center
Fri 10:27:41 AM 38.7775 -79.5436 257° West 399 459 36,000  Level Washington Center
Fri 10:28:41 AM 38.7564 -79.6756 258° West 410 472 36,000  Level Washington Center
Fri 10:29:42 AM 38.7331 -79.8125 258° West 410 472 36,000  Level Washington Center
Fri 10:30:40 AM 38.7072 -79.9494 256° West 410 472 36,000  Level Washington Center
Fri 10:31:41 AM 38.6789 -80.0994 256° West 410 472 36,000  Level Washington Center
Fri 10:33:03 AM 38.6389 -80.2856 255° West 395 455 36,000  Level Indianapolis Center
Fri 10:34:05 AM 38.6128 -80.4244 257° West 401 461 36,000  Level Indianapolis Center
Fri 10:35:07 AM 38.5883 -80.5597 257° West 394 453 36,000  Level Indianapolis Center
Fri 10:36:09 AM 38.5619 -80.6978 256° West 399 459 36,000  Level Indianapolis Center
Fri 10:37:11 AM 38.5344 -80.8364 256° West 402 463 36,000  Level Indianapolis Center
Fri 10:38:13 AM 38.5083 -80.9756 257° West 402 463 36,000  Level Indianapolis Center
Fri 10:39:15 AM 38.4797 -81.1147 255° West 402 463 36,000  Level Indianapolis Center
Fri 10:40:17 AM 38.4464 -81.2831 256° West 405 466 36,000  Level Indianapolis Center
Fri 10:41:19 AM 38.4183 -81.4244 256° West 407 468 36,000  Level Indianapolis Center
Fri 10:42:22 AM 38.3900 -81.5667 256° West 410 472 36,000  Level Indianapolis Center
Fri 10:43:24 AM 38.3619 -81.7075 256° West 407 468 36,000  Level Indianapolis Center
Fri 10:44:26 AM 38.3278 -81.8444 252° West 406 467 36,000  Level Indianapolis Center
Fri 10:45:28 AM 38.2903 -81.9803 251° West 406 467 36,000  Level Indianapolis Center
Fri 10:46:30 AM 38.2514 -82.1147 250° West 405 466 36,000  Level Indianapolis Center
Fri 10:47:32 AM 38.2067 -82.2794 251° West 408 470 36,000  Level Indianapolis Center
Fri 10:48:34 AM 38.1672 -82.4142 250° West 408 470 36,000  Level Indianapolis Center
Fri 10:49:36 AM 38.1269 -82.5558 250° West 407 468 36,000  Level Indianapolis Center
Fri 10:50:38 AM 38.0889 -82.6911 250° West 407 468 36,000  Level Indianapolis Center
Fri 10:51:40 AM 38.0483 -82.8267 249° West 410 472 36,000  Level Indianapolis Center
Fri 10:52:42 AM 38.0092 -82.9622 250° West 411 473 36,000  Level Indianapolis Center
Fri 10:53:44 AM 37.9703 -83.0992 250° West 413 475 36,000  Level Indianapolis Center
Fri 10:54:46 AM 37.9236 -83.2558 249° West 411 473 36,000  Level Indianapolis Center
Fri 10:55:48 AM 37.8831 -83.3919 249° West 414 476 36,000  Level Indianapolis Center
Fri 10:56:50 AM 37.8425 -83.5289 249° West 417 480 36,000  Level Indianapolis Center
Fri 10:57:52 AM 37.8017 -83.6658 249° West 418 481 36,000  Level Indianapolis Center
Fri 10:58:54 AM 37.7536 -83.8264 249° West 418 481 36,000  Level Indianapolis Center
Fri 10:59:56 AM 37.7128 -83.9636 249° West 416 479 36,000  Level Indianapolis Center
Fri 11:00:58 AM 37.6711 -84.0997 249° West 416 479 36,000  Level Indianapolis Center
Fri 11:02:00 AM 37.6294 -84.2350 249° West 415 478 36,000  Level Indianapolis Center
Fri 11:03:02 AM 37.5875 -84.3711 249° West 416 479 36,000  Level Indianapolis Center
Fri 11:04:04 AM 37.5389 -84.5308 249° West 419 482 36,000  Level Indianapolis Center
Fri 11:05:06 AM 37.4958 -84.6658 248° West 417 480 36,000  Level Indianapolis Center
Fri 11:06:08 AM 37.4539 -84.7997 248° West 413 475 36,000  Level Indianapolis Center
Fri 11:07:10 AM 37.4133 -84.9358 249° West 416 479 36,000  Level Indianapolis Center
Fri 11:08:12 AM 37.3714 -85.0697 249° West 412 474 36,000  Level Indianapolis Center
Fri 11:09:14 AM 37.3289 -85.2047 248° West 414 476 36,000  Level Indianapolis Center
Fri 11:10:16 AM 37.2767 -85.3636 248° West 420 483 36,000  Level Indianapolis Center
Fri 11:11:18 AM 37.2333 -85.4992 248° West 418 481 36,000  Level Indianapolis Center
Fri 11:12:20 AM 37.1903 -85.6411 249° West 423 487 36,000  Level Indianapolis Center
Fri 11:13:22 AM 37.1461 -85.7783 248° West 420 483 36,000  Level Indianapolis Center
Fri 11:14:24 AM 37.1003 -85.9153 247° West 422 486 36,000  Level Indianapolis Center
Fri 11:15:26 AM 37.0556 -86.0536 248° West 425 489 36,000  Level Indianapolis Center
Fri 11:16:28 AM 37.0097 -86.1953 248° West 433 498 36,000  Level Indianapolis Center
Fri 11:17:30 AM 36.9625 -86.3369 247° West 437 503 36,000  Level Indianapolis Center
Fri 11:18:01 AM 36.9322 -86.4275 247° West 436 502 36,000  Level Memphis Center
Fri 11:19:01 AM 36.8761 -86.5678 243° Southwest 443 510 36,000  Level Memphis Center
Fri 11:20:01 AM 36.8233 -86.6844 241° Southwest 448 516 36,000  Level Memphis Center
Fri 11:21:01 AM 36.7647 -86.8192 242° Southwest 448 516 36,000  Level Memphis Center
Fri 11:22:01 AM 36.7058 -86.9536 241° Southwest 448 516 36,000  Level Memphis Center
Fri 11:23:00 AM 36.6469 -87.0856 241° Southwest 448 516 36,000 -403 Level Memphis Center
Fri 11:24:00 AM 36.5878 -87.2169 241° Southwest 448 516 35,200 -496 Descending Memphis Center
Fri 11:25:01 AM 36.5286 -87.3486 241° Southwest 448 516 35,000 -100 Descending Memphis Center
Fri 11:26:00 AM 36.4669 -87.4797 240° Southwest 448 516 35,000  Level Memphis Center
Fri 11:27:00 AM 36.4075 -87.6133 241° Southwest 448 516 35,000 -99 Level Memphis Center
Fri 11:28:01 AM 36.3500 -87.7442 241° Southwest 443 510 34,800 -595 Descending Memphis Center
Fri 11:29:01 AM 36.2900 -87.8750 240° Southwest 443 510 33,800 -950 Descending Memphis Center
Fri 11:30:01 AM 36.2300 -88.0028 240° Southwest 443 510 32,900 -1,000 Descending Memphis Center
Fri 11:31:01 AM 36.1639 -88.1461 240° Southwest 448 516 31,800 -1,150 Descending Memphis Center
Fri 11:32:01 AM 36.1014 -88.2789 240° Southwest 448 516 30,600 -1,563 Descending Memphis Center
Fri 11:33:00 AM 36.0411 -88.4086 240° Southwest 448 516 28,700 -1,900 Descending Memphis Center
Fri 11:34:01 AM 35.9764 -88.5436 239° Southwest 453 521 26,800 -1,750 Descending Memphis Center
Fri 11:35:00 AM 35.9239 -88.6550 240° Southwest 464 534 25,200 -1,400 Descending Memphis Center
Fri 11:36:01 AM 35.8528 -88.8025 239° Southwest 464 534 24,000 -950 Descending Memphis Center
Fri 11:37:00 AM 35.7878 -88.9419 240° Southwest 464 534 23,300 -1,210 Descending Memphis Center
Fri 11:38:00 AM 35.7264 -89.0681 239° Southwest 459 528 21,600 -2,100 Descending Memphis Center
Fri 11:39:00 AM 35.6544 -89.1689 229° Southwest 418 481 19,100 -2,550 Descending Memphis Center
Fri 11:40:00 AM 35.5742 -89.2747 227° Southwest 410 472 16,500 -2,700 Descending Memphis Center
Fri 11:41:00 AM 35.4894 -89.3803 225° Southwest 410 472 13,700 -2,281 Descending Memphis Center
Fri 11:42:01 AM 35.4192 -89.4703 226° Southwest 383 441 11,900 -1,550 Descending Memphis Center
Fri 11:43:00 AM 35.3614 -89.5450 227° Southwest 340 391 10,600 -1,261 Descending Memphis Center
Fri 11:44:00 AM 35.3033 -89.6192 226° Southwest 305 351 9,400 -793 Descending Memphis Center
Fri 11:45:01 AM 35.2475 -89.6908 226° Southwest 300 345 9,000 -248 Descending Memphis Center
Fri 11:46:01 AM 35.1958 -89.7575 227° Southwest 289 333 8,900 -151 Descending Memphis Center
Fri 11:47:00 AM 35.1458 -89.8214 226° Southwest 267 307 8,700 -650 Descending Memphis Center
Fri 11:48:01 AM 35.0919 -89.8672 215° Southwest 254 292 7,600 -992 Descending Memphis Center
Fri 11:49:01 AM 35.0253 -89.8678 180° South 240 276 6,700 -1,008 Descending Memphis Center
Fri 11:50:00 AM 34.9564 -89.8681 180° South 240 276 5,600 -1,050 Descending Memphis Center
Fri 11:51:01 AM 34.8875 -89.8658 178° South 235 270 4,600 -1,050 Descending Memphis Center
Fri 11:52:00 AM 34.8333 -89.8992 207° Southwest 218 251 3,500 -807 Descending Memphis Center
Fri 11:53:00 AM 34.8522 -89.9647 289° West 167 192 3,000 -404 Descending Memphis Center
Fri 11:53:44 AM 34.9000 -89.9667 358° North 216 249 2,800 -692 Descending KMEM
Fri 11:54:44 AM 34.9500 -89.9667 360° North 197 227 1,800 -850 Descending KMEM
Fri 11:55:44 AM 34.9833 -89.9667 360° North 122 140 1,100 -700 Descending KMEM

Login

Don't have an account? Register now (free) for customized features, flight alerts, and more!